LLBG

Ben Gurion International Airport

Tel Aviv, Israel
METAR LLBG 221520Z 35005KT CAVOK 37/09 Q1011 NOSIG
Observed Flight Rules
May-22 @ 15:20 UTC (15 minutes ago) Visual Flight Rules
Wind Visibility Clouds
350° at 5 knots 10,000+ meters
  • Clear skies
Temperatures Readings
Current 37°C / 99°F
Dewpoint 9°C / 48°F
Humidity 18%
Altimeter 29.85" Hg
Pressure 1011 hPa
Elevation 49
METAR LLBG 221520Z 35005KT CAVOK 37/09 Q1011 NOSIG
Observed Flight Rules
May-22 @ 15:20 UTC
(15 minutes ago)
VFR
Wind Visibility
350° at 5 knots 10,000+ meters
Clouds
  • Clear skies
Temperature Dewpoint
37°C / 99°F 9°C / 48°F
Humidity Altimeter Pressure
18% 29.85" Hg 1011 hPa